Strona główna
METAR-TAF:

METAR-TAF

Lotnisko :

Newport State Airport

Newport, Rhode Island, Stany Zjednoczone

Szerokość geograficzna: 41-31-48N, Długość geograficzna: 071-17-01W, wysokość: 52 m

Aktualna obserwacja pogody

Raport powstał 45 minut temu, godzina 19:02 UTC
Wiatr 12 kt od południe w porywach dochodzący do 19 kt
Temperatura 17°C
Wilgotność 94%
Ciśnienie 1016 hPa
Widzialność: 2.8 km
Przerywane chmury na wysokości 400 ft
Zachmurzenie całkowite na wysokości 1000 ft
słaby deszcz, zamglenie

METAR: KUUU 151902Z AUTO 19012G19KT 1 3/4SM -RA BR BKN004 OVC010 17/16 A2999 RMK AO2 P0001 T01670161

czas: 15:47 (19:47 UTC)


TAF: brakujący

Obserwacja i prognoza pogody dla ponad 4000 lotnisk (raport METAR i TAF).

Dostępne stacje oznaczono żółtymi i czerwonymi punktami na mapie.

Najedź kursorem aby zobaczyć nazwę stacji.

Kliknij aby zobaczyć obserwacje i prognozy pogody.

Aby zmienić mapę: kliknij na zielony przycisk z czarnym krzyżykiem, aby powiększyć; na zielony przycisk z myślnikiem, aby pomniejszyć; na zielone strzałki, aby przejść do map sąsiednich.


METAR-TAF: